Time;durP1;ratioP1;P1;durP2;ratioP2;P2;SDS_P1;SDS_P2;PMS_P1;PMS_P2;Temp;Humidity;BMP_temperature;BMP_pressure;BME280_temperature;BME280_humidity;BME280_pressure;Samples;Min_cycle;Max_cycle;Signal;HPM_P1;HPM_P2
2023/07/08 00:00:50;;;;;;;9.80;4.00;;;;;;;;;;4893166;29;20970;-77
2023/07/08 00:03:17;;;;;;;7.65;3.88;;;;;;;;;;4872487;29;20076;-76
2023/07/08 00:05:43;;;;;;;4.35;3.85;;;;;;;;;;4887897;29;20096;-77
2023/07/08 00:08:17;;;;;;;6.32;4.15;;;;;;;;;;4896273;29;20036;-77
2023/07/08 00:10:43;;;;;;;11.40;4.38;;;;;;;;;;4887439;29;20127;-78
2023/07/08 00:13:09;;;;;;;6.05;4.30;;;;;;;;;;4879057;29;20040;-77
2023/07/08 00:15:36;;;;;;;6.45;4.32;;;;;;;;;;4875501;29;20650;-77
2023/07/08 00:18:09;;;;;;;8.20;4.20;;;;;;;;;;4879636;29;20089;-77
2023/07/08 00:20:37;;;;;;;6.60;4.40;;;;;;;;;;4879472;29;20059;-77
2023/07/08 00:23:03;;;;;;;7.95;4.60;;;;;;;;;;4870599;29;20127;-78
2023/07/08 00:25:29;;;;;;;7.68;4.38;;;;;;;;;;4880207;29;20266;-78
2023/07/08 00:27:55;;;;;;;6.05;4.13;;;;;;;;;;4871108;29;20056;-78
2023/07/08 00:30:22;;;;;;;6.10;4.38;;;;;;;;;;4879589;29;20067;-77
2023/07/08 00:32:53;;;;;;;5.78;4.80;;;;;;;;;;4885193;29;20108;-78
2023/07/08 00:35:43;;;;;;;6.78;4.57;;;;;;;;;;4881589;29;20055;-77
2023/07/08 00:38:26;;;;;;;6.68;4.85;;;;;;;;;;4871305;29;20074;-77
2023/07/08 00:41:11;;;;;;;13.03;5.00;;;;;;;;;;4865590;29;20047;-78
2023/07/08 00:43:49;;;;;;;5.57;4.00;;;;;;;;;;4881303;29;21699;-78
2023/07/08 00:46:15;;;;;;;9.35;4.88;;;;;;;;;;4877153;29;20048;-77
2023/07/08 00:48:41;;;;;;;7.22;4.60;;;;;;;;;;4878079;29;20187;-77
2023/07/08 00:51:12;;;;;;;5.40;4.18;;;;;;;;;;4860553;29;20045;-77
2023/07/08 00:53:38;;;;;;;6.72;3.80;;;;;;;;;;4881123;29;20056;-77
2023/07/08 00:56:08;;;;;;;9.75;5.07;;;;;;;;;;4872477;29;20044;-77
2023/07/08 00:58:35;;;;;;;6.03;4.00;;;;;;;;;;4877409;29;20131;-79
2023/07/08 01:01:04;;;;;;;7.10;4.72;;;;;;;;;;4879758;29;20036;-77
2023/07/08 01:03:31;;;;;;;10.98;4.22;;;;;;;;;;4894333;29;20059;-79
2023/07/08 01:05:59;;;;;;;6.78;4.15;;;;;;;;;;4880575;29;20545;-78
2023/07/08 01:08:28;;;;;;;16.00;4.93;;;;;;;;;;4879712;29;20094;-76
2023/07/08 01:10:56;;;;;;;7.45;4.15;;;;;;;;;;4880954;29;20044;-77
2023/07/08 01:13:23;;;;;;;10.10;4.30;;;;;;;;;;4856629;29;20058;-77
2023/07/08 01:15:49;;;;;;;9.63;4.25;;;;;;;;;;4864590;29;20044;-77
2023/07/08 01:18:16;;;;;;;9.38;4.22;;;;;;;;;;4878847;29;21938;-77
2023/07/08 01:20:43;;;;;;;5.55;3.70;;;;;;;;;;4861108;29;20041;-77
2023/07/08 01:23:12;;;;;;;6.47;3.60;;;;;;;;;;4878326;29;20183;-77
2023/07/08 01:25:39;;;;;;;8.77;3.97;;;;;;;;;;4862322;29;20577;-77
2023/07/08 01:28:05;;;;;;;14.07;4.40;;;;;;;;;;4878172;29;20080;-77
2023/07/08 01:30:31;;;;;;;6.15;3.83;;;;;;;;;;4878622;29;20055;-78
2023/07/08 01:33:00;;;;;;;7.65;3.95;;;;;;;;;;4882966;29;20062;-78
2023/07/08 01:35:27;;;;;;;5.53;3.85;;;;;;;;;;4868172;29;22033;-78
2023/07/08 01:37:54;;;;;;;6.80;3.72;;;;;;;;;;4885434;29;20088;-78
2023/07/08 01:40:20;;;;;;;5.35;3.88;;;;;;;;;;4886401;29;20048;-78
2023/07/08 01:42:46;;;;;;;5.72;3.90;;;;;;;;;;4884843;29;20052;-78
2023/07/08 01:45:17;;;;;;;6.38;4.45;;;;;;;;;;4869093;29;20051;-78
2023/07/08 01:47:45;;;;;;;7.95;4.45;;;;;;;;;;4883429;29;20048;-78
2023/07/08 01:50:12;;;;;;;6.97;4.25;;;;;;;;;;4880614;29;20111;-78
2023/07/08 01:52:38;;;;;;;10.13;4.30;;;;;;;;;;4884249;29;20645;-77
2023/07/08 01:55:04;;;;;;;9.75;4.30;;;;;;;;;;4884064;29;20085;-77
2023/07/08 01:57:30;;;;;;;6.00;4.60;;;;;;;;;;4867400;29;20051;-78
2023/07/08 01:59:56;;;;;;;6.30;4.25;;;;;;;;;;4883914;29;20043;-77
2023/07/08 02:02:24;;;;;;;6.05;4.32;;;;;;;;;;4866831;29;20102;-78
2023/07/08 02:04:50;;;;;;;6.00;4.38;;;;;;;;;;4884550;29;20060;-77
2023/07/08 02:07:16;;;;;;;10.48;4.50;;;;;;;;;;4881536;29;20052;-77
2023/07/08 02:09:42;;;;;;;10.45;6.00;;;;;;;;;;4866082;29;20049;-77
2023/07/08 02:12:08;;;;;;;7.88;4.80;;;;;;;;;;4866052;29;20036;-77
2023/07/08 02:14:34;;;;;;;7.20;4.93;;;;;;;;;;4880834;29;20047;-77
2023/07/08 02:17:00;;;;;;;6.65;4.90;;;;;;;;;;4880461;29;20100;-77
2023/07/08 02:19:27;;;;;;;11.40;4.63;;;;;;;;;;4880404;29;20147;-77
2023/07/08 02:21:53;;;;;;;7.28;4.65;;;;;;;;;;4871107;29;20052;-78
2023/07/08 02:24:20;;;;;;;12.15;5.32;;;;;;;;;;4886628;29;20139;-78
2023/07/08 02:26:48;;;;;;;9.75;4.78;;;;;;;;;;4851581;29;20053;-77
2023/07/08 02:29:15;;;;;;;8.07;4.63;;;;;;;;;;4881705;29;21789;-77
2023/07/08 02:31:41;;;;;;;9.50;5.13;;;;;;;;;;4879487;29;20055;-77
2023/07/08 02:34:07;;;;;;;5.13;4.63;;;;;;;;;;4883631;29;20517;-77
2023/07/08 02:36:34;;;;;;;8.07;4.97;;;;;;;;;;4866762;29;20122;-76
2023/07/08 02:39:00;;;;;;;9.48;5.15;;;;;;;;;;4885503;29;20064;-77
2023/07/08 02:41:26;;;;;;;7.55;4.75;;;;;;;;;;4877692;29;20477;-76
2023/07/08 02:43:52;;;;;;;8.90;5.43;;;;;;;;;;4887876;29;20047;-77
2023/07/08 02:46:18;;;;;;;7.55;4.90;;;;;;;;;;4880381;29;20049;-76
2023/07/08 02:48:44;;;;;;;7.20;4.80;;;;;;;;;;4883034;29;20044;-76
2023/07/08 02:51:11;;;;;;;7.68;5.47;;;;;;;;;;4879224;29;20040;-77
2023/07/08 02:53:37;;;;;;;9.85;5.38;;;;;;;;;;4880286;29;20173;-78
2023/07/08 02:56:03;;;;;;;10.98;5.15;;;;;;;;;;4880069;29;21868;-77
2023/07/08 02:58:29;;;;;;;7.97;5.10;;;;;;;;;;4864568;29;20072;-77
2023/07/08 03:00:56;;;;;;;10.65;5.20;;;;;;;;;;4894985;29;20504;-77
2023/07/08 03:03:22;;;;;;;5.53;4.93;;;;;;;;;;4863847;29;21684;-77
2023/07/08 03:06:15;;;;;;;7.15;4.65;;;;;;;;;;4884558;29;20082;-78
2023/07/08 03:08:41;;;;;;;9.60;4.93;;;;;;;;;;4873276;29;20091;-78
2023/07/08 03:11:08;;;;;;;10.15;5.30;;;;;;;;;;4886731;29;20041;-78
2023/07/08 03:13:34;;;;;;;8.70;4.72;;;;;;;;;;4883048;29;20207;-78
2023/07/08 03:16:01;;;;;;;7.38;4.68;;;;;;;;;;4882953;29;20404;-77
2023/07/08 03:18:28;;;;;;;11.05;5.38;;;;;;;;;;4880594;29;20054;-77
2023/07/08 03:20:55;;;;;;;6.70;5.15;;;;;;;;;;4881036;29;20049;-77
2023/07/08 03:23:22;;;;;;;5.80;4.85;;;;;;;;;;4865970;29;20072;-78
2023/07/08 03:25:48;;;;;;;7.18;5.38;;;;;;;;;;4864666;29;20063;-78
2023/07/08 03:28:14;;;;;;;6.10;5.18;;;;;;;;;;4879264;29;20052;-77
2023/07/08 03:30:44;;;;;;;11.75;6.30;;;;;;;;;;4865075;29;20058;-77
2023/07/08 03:33:11;;;;;;;7.18;5.97;;;;;;;;;;4880799;29;20452;-77
2023/07/08 03:35:38;;;;;;;10.38;5.60;;;;;;;;;;4876980;29;20102;-77
2023/07/08 03:38:04;;;;;;;7.38;5.20;;;;;;;;;;4866767;29;20060;-77
2023/07/08 03:40:31;;;;;;;7.00;5.30;;;;;;;;;;4869164;29;20076;-77
2023/07/08 03:42:57;;;;;;;10.38;6.20;;;;;;;;;;4862716;29;20055;-78
2023/07/08 03:45:23;;;;;;;8.13;5.47;;;;;;;;;;4892132;29;20059;-78
2023/07/08 03:47:49;;;;;;;10.98;6.53;;;;;;;;;;4879049;29;20063;-78
2023/07/08 03:50:18;;;;;;;10.23;5.68;;;;;;;;;;4889165;29;20044;-77
2023/07/08 03:52:44;;;;;;;13.00;6.97;;;;;;;;;;4886954;29;20721;-77
2023/07/08 03:55:11;;;;;;;10.20;6.60;;;;;;;;;;4894780;29;20108;-78
2023/07/08 03:57:37;;;;;;;8.77;5.82;;;;;;;;;;4896418;29;20052;-79
2023/07/08 04:00:04;;;;;;;11.02;6.20;;;;;;;;;;4873821;29;20048;-79
2023/07/08 04:02:30;;;;;;;7.38;5.65;;;;;;;;;;4889890;29;20103;-78
2023/07/08 04:04:56;;;;;;;10.43;6.32;;;;;;;;;;4863807;29;20086;-77
2023/07/08 04:07:22;;;;;;;7.18;5.75;;;;;;;;;;4878882;29;20067;-78
2023/07/08 04:09:50;;;;;;;13.82;6.63;;;;;;;;;;4864591;29;20175;-78
2023/07/08 04:12:16;;;;;;;8.80;6.05;;;;;;;;;;4878993;29;20222;-78
2023/07/08 04:14:42;;;;;;;10.90;6.28;;;;;;;;;;4878180;29;20048;-78
2023/07/08 04:17:09;;;;;;;9.93;6.93;;;;;;;;;;4877674;29;20060;-78
2023/07/08 04:19:35;;;;;;;8.77;6.57;;;;;;;;;;4863459;29;20063;-77
2023/07/08 04:22:02;;;;;;;9.75;6.68;;;;;;;;;;4878292;29;20104;-78
2023/07/08 04:24:28;;;;;;;15.77;7.45;;;;;;;;;;4863963;29;20050;-78
2023/07/08 04:26:54;;;;;;;7.82;6.40;;;;;;;;;;4867999;29;20892;-79
2023/07/08 04:29:23;;;;;;;7.43;6.35;;;;;;;;;;4865353;29;21016;-79
2023/07/08 04:31:49;;;;;;;8.48;6.38;;;;;;;;;;4881891;29;20040;-79
2023/07/08 04:34:16;;;;;;;10.10;6.90;;;;;;;;;;4877524;29;20084;-78
2023/07/08 04:36:42;;;;;;;8.60;6.18;;;;;;;;;;4879057;29;20056;-78
2023/07/08 04:39:10;;;;;;;10.05;6.32;;;;;;;;;;4879623;29;20107;-78
2023/07/08 04:41:43;;;;;;;11.07;6.68;;;;;;;;;;4877866;29;20052;-77
2023/07/08 04:44:13;;;;;;;7.38;6.03;;;;;;;;;;4880063;29;20054;-78
2023/07/08 04:46:50;;;;;;;9.85;6.35;;;;;;;;;;4876112;29;20044;-78
2023/07/08 04:49:17;;;;;;;12.65;6.82;;;;;;;;;;4879835;29;20513;-77
2023/07/08 04:51:43;;;;;;;9.77;6.40;;;;;;;;;;4858755;29;20048;-78
2023/07/08 04:54:10;;;;;;;10.73;6.15;;;;;;;;;;4878602;29;20040;-79
2023/07/08 04:56:41;;;;;;;10.82;6.53;;;;;;;;;;4878013;29;20086;-79
2023/07/08 04:59:10;;;;;;;10.85;6.57;;;;;;;;;;4868233;29;20045;-79
2023/07/08 05:01:37;;;;;;;10.10;6.43;;;;;;;;;;4877562;29;21072;-79
2023/07/08 05:04:05;;;;;;;14.52;6.90;;;;;;;;;;4883241;29;20059;-78
2023/07/08 05:06:31;;;;;;;8.93;6.53;;;;;;;;;;4883040;29;20063;-78
2023/07/08 05:08:59;;;;;;;11.77;6.70;;;;;;;;;;4868711;29;20136;-79
2023/07/08 05:11:25;;;;;;;11.50;7.07;;;;;;;;;;4883575;29;20048;-78
2023/07/08 05:13:51;;;;;;;8.45;6.32;;;;;;;;;;4883775;29;20048;-79
2023/07/08 05:16:17;;;;;;;8.05;6.07;;;;;;;;;;4865302;29;20127;-79
2023/07/08 05:18:45;;;;;;;8.85;6.43;;;;;;;;;;4882868;29;22250;-78
2023/07/08 05:21:11;;;;;;;9.65;6.05;;;;;;;;;;4883733;29;20063;-78
2023/07/08 05:23:37;;;;;;;8.25;6.20;;;;;;;;;;4885285;29;20051;-78
2023/07/08 05:26:04;;;;;;;6.47;5.40;;;;;;;;;;4880241;29;20112;-79
2023/07/08 05:28:31;;;;;;;8.45;6.43;;;;;;;;;;4884749;29;20520;-79
2023/07/08 05:30:57;;;;;;;11.35;6.45;;;;;;;;;;4881333;29;20048;-79
2023/07/08 05:33:24;;;;;;;11.43;5.75;;;;;;;;;;4883903;29;20468;-79
2023/07/08 05:35:50;;;;;;;9.35;5.45;;;;;;;;;;4882884;29;20827;-79
2023/07/08 05:38:16;;;;;;;7.97;5.80;;;;;;;;;;4875273;29;20757;-78
2023/07/08 05:40:42;;;;;;;9.77;5.60;;;;;;;;;;4878359;29;20099;-78
2023/07/08 05:43:08;;;;;;;8.77;5.80;;;;;;;;;;4877184;29;20048;-78
2023/07/08 05:45:35;;;;;;;10.18;6.07;;;;;;;;;;4882310;29;20040;-79
2023/07/08 05:48:02;;;;;;;9.25;5.88;;;;;;;;;;4878328;29;20056;-78
2023/07/08 05:50:28;;;;;;;7.47;5.80;;;;;;;;;;4866408;29;20044;-78
2023/07/08 05:52:54;;;;;;;9.52;5.55;;;;;;;;;;4878721;29;20127;-78
2023/07/08 05:55:20;;;;;;;7.25;5.57;;;;;;;;;;4881872;29;20082;-78
2023/07/08 05:57:46;;;;;;;9.77;5.70;;;;;;;;;;4848218;29;20075;-79
2023/07/08 06:00:15;;;;;;;9.75;5.40;;;;;;;;;;4877611;29;20045;-80
2023/07/08 06:02:41;;;;;;;7.32;5.10;;;;;;;;;;4882375;29;20060;-78
2023/07/08 06:05:08;;;;;;;8.55;5.40;;;;;;;;;;4878007;29;20052;-79
2023/07/08 06:07:34;;;;;;;8.38;4.95;;;;;;;;;;4882479;29;20131;-79
2023/07/08 06:10:00;;;;;;;13.70;5.68;;;;;;;;;;4886234;29;20594;-78
2023/07/08 06:12:26;;;;;;;7.45;5.15;;;;;;;;;;4886039;29;20067;-79
2023/07/08 06:14:52;;;;;;;7.30;4.85;;;;;;;;;;4883265;29;20404;-78
2023/07/08 06:17:18;;;;;;;7.60;5.00;;;;;;;;;;4879442;29;20052;-78
2023/07/08 06:19:45;;;;;;;6.95;4.15;;;;;;;;;;4881795;29;20066;-78
2023/07/08 06:22:11;;;;;;;11.18;5.30;;;;;;;;;;4879819;29;20404;-78
2023/07/08 06:24:37;;;;;;;5.25;4.75;;;;;;;;;;4865345;29;20044;-79
2023/07/08 06:27:03;;;;;;;6.72;4.97;;;;;;;;;;4876441;29;20052;-79
2023/07/08 06:29:29;;;;;;;6.65;4.40;;;;;;;;;;4882860;29;20100;-79
2023/07/08 06:31:55;;;;;;;7.95;4.20;;;;;;;;;;4883454;29;20082;-79
2023/07/08 06:34:23;;;;;;;9.05;4.22;;;;;;;;;;4885255;29;20057;-77
2023/07/08 06:36:50;;;;;;;7.90;4.53;;;;;;;;;;4865634;29;20574;-77
2023/07/08 06:39:16;;;;;;;12.88;4.88;;;;;;;;;;4864670;29;20048;-77
2023/07/08 06:41:43;;;;;;;7.88;4.43;;;;;;;;;;4852587;29;20420;-78
2023/07/08 06:44:09;;;;;;;11.00;4.47;;;;;;;;;;4884873;29;20048;-78
2023/07/08 06:46:35;;;;;;;6.43;4.32;;;;;;;;;;4885482;29;20604;-79
2023/07/08 06:49:01;;;;;;;6.18;4.50;;;;;;;;;;4860810;29;20056;-79
2023/07/08 06:51:28;;;;;;;6.55;3.88;;;;;;;;;;4885074;29;20044;-78
2023/07/08 06:53:54;;;;;;;8.18;3.80;;;;;;;;;;4872744;29;20049;-78
2023/07/08 06:56:20;;;;;;;5.65;3.85;;;;;;;;;;4883439;29;20594;-78
2023/07/08 06:58:46;;;;;;;4.88;3.63;;;;;;;;;;4882440;29;20582;-79
2023/07/08 07:01:13;;;;;;;7.93;3.90;;;;;;;;;;4890261;29;20055;-79
2023/07/08 07:03:39;;;;;;;8.75;4.32;;;;;;;;;;4890398;29;20146;-78
2023/07/08 07:06:05;;;;;;;6.88;3.67;;;;;;;;;;4885159;29;20669;-79
2023/07/08 07:08:31;;;;;;;5.97;4.13;;;;;;;;;;4885991;29;20052;-78
2023/07/08 07:10:57;;;;;;;7.13;3.67;;;;;;;;;;4884376;29;20493;-78
2023/07/08 07:13:23;;;;;;;5.63;3.67;;;;;;;;;;4883399;29;20048;-78
2023/07/08 07:15:50;;;;;;;7.97;3.95;;;;;;;;;;4881288;29;20044;-78
2023/07/08 07:18:16;;;;;;;4.90;3.53;;;;;;;;;;4883090;29;20044;-79
2023/07/08 07:20:47;;;;;;;4.85;3.22;;;;;;;;;;4881535;29;20096;-79
2023/07/08 07:23:13;;;;;;;7.72;3.55;;;;;;;;;;4867165;29;20047;-79
2023/07/08 07:25:39;;;;;;;5.00;3.65;;;;;;;;;;4869621;29;20062;-78
2023/07/08 07:28:06;;;;;;;6.00;3.67;;;;;;;;;;4879451;29;20052;-78
2023/07/08 07:30:32;;;;;;;7.88;3.28;;;;;;;;;;4862784;29;20057;-79
2023/07/08 07:33:01;;;;;;;6.50;3.85;;;;;;;;;;4883490;29;20071;-78
2023/07/08 07:35:27;;;;;;;8.10;3.30;;;;;;;;;;4886146;29;20044;-78
2023/07/08 07:37:54;;;;;;;9.70;3.08;;;;;;;;;;4863129;29;20143;-80
2023/07/08 07:40:20;;;;;;;5.05;2.95;;;;;;;;;;4881128;29;20134;-79
2023/07/08 07:42:46;;;;;;;5.65;3.50;;;;;;;;;;4877162;29;20051;-79
2023/07/08 07:45:13;;;;;;;4.05;3.22;;;;;;;;;;4877671;29;20557;-79
2023/07/08 07:47:39;;;;;;;6.72;3.55;;;;;;;;;;4878005;29;20059;-80
2023/07/08 07:50:06;;;;;;;7.82;3.08;;;;;;;;;;4913803;29;21844;-80
2023/07/08 07:52:33;;;;;;;6.40;3.58;;;;;;;;;;4904425;29;20052;-79
2023/07/08 07:54:59;;;;;;;5.95;2.80;;;;;;;;;;4896864;29;20048;-80
2023/07/08 07:57:25;;;;;;;5.70;3.00;;;;;;;;;;4900798;29;20120;-80
2023/07/08 07:59:51;;;;;;;3.70;3.03;;;;;;;;;;4889104;29;20056;-79
2023/07/08 08:02:17;;;;;;;4.20;3.72;;;;;;;;;;4875384;29;20052;-80
2023/07/08 08:04:43;;;;;;;11.73;3.70;;;;;;;;;;4888143;29;20052;-80
2023/07/08 08:07:09;;;;;;;6.28;3.13;;;;;;;;;;4889383;29;20210;-80
2023/07/08 08:09:37;;;;;;;7.60;4.13;;;;;;;;;;4889258;29;20040;-80
2023/07/08 08:12:03;;;;;;;4.25;3.17;;;;;;;;;;4886990;29;20051;-80
2023/07/08 08:14:30;;;;;;;6.25;3.50;;;;;;;;;;4888578;29;20168;-79
2023/07/08 08:16:56;;;;;;;6.43;3.47;;;;;;;;;;4886690;29;20045;-80
2023/07/08 08:19:22;;;;;;;15.80;3.45;;;;;;;;;;4875378;29;20571;-80
2023/07/08 08:21:48;;;;;;;4.70;3.35;;;;;;;;;;4891587;29;20145;-79
2023/07/08 08:24:15;;;;;;;9.55;3.35;;;;;;;;;;4879208;29;20278;-79
2023/07/08 08:26:41;;;;;;;4.47;3.10;;;;;;;;;;4873622;29;20516;-80
2023/07/08 08:29:07;;;;;;;5.68;3.40;;;;;;;;;;4886910;29;20054;-80
2023/07/08 08:31:33;;;;;;;7.32;3.58;;;;;;;;;;4878240;29;20056;-80
2023/07/08 08:33:59;;;;;;;7.28;3.20;;;;;;;;;;4884305;29;20327;-79
2023/07/08 08:36:25;;;;;;;7.53;3.28;;;;;;;;;;4885046;29;20537;-79
2023/07/08 08:38:51;;;;;;;3.95;3.50;;;;;;;;;;4886488;29;20540;-79
2023/07/08 08:41:19;;;;;;;4.68;3.40;;;;;;;;;;4887554;29;20048;-81
2023/07/08 08:43:46;;;;;;;6.20;3.20;;;;;;;;;;4864865;29;20040;-82
2023/07/08 08:46:20;;;;;;;5.80;3.33;;;;;;;;;;4881692;29;22352;-80
2023/07/08 08:49:07;;;;;;;7.28;3.35;;;;;;;;;;4881794;29;20513;-79
2023/07/08 08:51:33;;;;;;;12.77;3.47;;;;;;;;;;4868414;29;20124;-78
2023/07/08 08:54:00;;;;;;;4.90;3.35;;;;;;;;;;4878035;29;20138;-81
2023/07/08 08:56:40;;;;;;;5.53;3.20;;;;;;;;;;4893559;29;20048;-80
2023/07/08 08:59:24;;;;;;;7.05;3.20;;;;;;;;;;4877040;29;20508;-80
2023/07/08 09:01:51;;;;;;;10.90;3.67;;;;;;;;;;4864121;29;20048;-81
2023/07/08 09:04:27;;;;;;;7.53;3.42;;;;;;;;;;4879785;29;20115;-80
2023/07/08 09:06:58;;;;;;;7.63;4.32;;;;;;;;;;4880006;29;20825;-81
2023/07/08 09:09:34;;;;;;;8.70;3.15;;;;;;;;;;4880766;29;20681;-80
2023/07/08 09:12:03;;;;;;;12.43;3.33;;;;;;;;;;4878183;29;20039;-81
2023/07/08 09:14:30;;;;;;;8.10;3.75;;;;;;;;;;4872111;29;20112;-83
2023/07/08 09:17:06;;;;;;;9.15;3.15;;;;;;;;;;4873349;29;20049;-82
2023/07/08 09:19:55;;;;;;;6.65;3.03;;;;;;;;;;4884846;29;20098;-81
2023/07/08 09:22:41;;;;;;;7.82;3.53;;;;;;;;;;4857129;29;20100;-82
2023/07/08 09:25:20;;;;;;;5.97;3.03;;;;;;;;;;4849628;29;20442;-82
2023/07/08 09:27:47;;;;;;;10.48;3.13;;;;;;;;;;4887970;29;20048;-81
2023/07/08 09:30:14;;;;;;;6.45;3.30;;;;;;;;;;4883727;29;20108;-82
2023/07/08 09:32:40;;;;;;;5.63;3.10;;;;;;;;;;4888735;29;20071;-83
2023/07/08 09:35:08;;;;;;;10.38;3.85;;;;;;;;;;4886947;29;20052;-81
2023/07/08 09:37:35;;;;;;;8.32;3.05;;;;;;;;;;4885940;29;20147;-82
2023/07/08 09:40:04;;;;;;;10.23;2.95;;;;;;;;;;4885303;29;20052;-82
2023/07/08 09:42:35;;;;;;;3.58;3.08;;;;;;;;;;4871725;29;20190;-82
2023/07/08 09:45:05;;;;;;;5.00;3.10;;;;;;;;;;4887462;29;20048;-82
2023/07/08 09:47:36;;;;;;;6.50;3.15;;;;;;;;;;4866590;29;20067;-82
2023/07/08 09:50:03;;;;;;;10.48;3.63;;;;;;;;;;4884362;29;20135;-83
2023/07/08 09:52:31;;;;;;;5.63;2.80;;;;;;;;;;4890019;29;20047;-82
2023/07/08 09:54:57;;;;;;;4.75;3.20;;;;;;;;;;4877619;29;20115;-82
2023/07/08 09:57:31;;;;;;;5.72;2.80;;;;;;;;;;4878257;29;20485;-83
2023/07/08 09:59:59;;;;;;;4.78;3.00;;;;;;;;;;4882290;29;20581;-83
2023/07/08 10:02:28;;;;;;;4.05;2.70;;;;;;;;;;4880928;29;20091;-83
2023/07/08 10:04:56;;;;;;;5.07;2.70;;;;;;;;;;4862572;29;20075;-82
2023/07/08 10:07:22;;;;;;;6.13;3.13;;;;;;;;;;4878151;29;20543;-82
2023/07/08 10:09:53;;;;;;;5.30;2.97;;;;;;;;;;4882986;29;20127;-83
2023/07/08 10:12:20;;;;;;;3.67;2.90;;;;;;;;;;4885041;29;20460;-83
2023/07/08 10:14:49;;;;;;;5.47;3.17;;;;;;;;;;4869500;29;20048;-82
2023/07/08 10:17:16;;;;;;;4.78;2.88;;;;;;;;;;4883804;29;20508;-82
2023/07/08 10:19:42;;;;;;;3.20;2.67;;;;;;;;;;4866635;29;20765;-78
2023/07/08 10:22:11;;;;;;;8.85;2.95;;;;;;;;;;4873591;29;20104;-78
2023/07/08 10:25:04;;;;;;;7.25;2.85;;;;;;;;;;4887428;29;20111;-79
2023/07/08 10:27:49;;;;;;;6.60;2.47;;;;;;;;;;4834362;29;20057;-78
2023/07/08 10:30:34;;;;;;;6.80;2.67;;;;;;;;;;4862952;29;20056;-83
2023/07/08 10:33:08;;;;;;;4.90;3.13;;;;;;;;;;4884117;29;20056;-81
2023/07/08 10:35:34;;;;;;;4.47;2.75;;;;;;;;;;4872981;29;20379;-82
2023/07/08 10:38:27;;;;;;;4.88;2.78;;;;;;;;;;4880825;29;20048;-82
2023/07/08 10:41:22;;;;;;;4.25;2.80;;;;;;;;;;4874673;29;20060;-82
2023/07/08 10:43:48;;;;;;;5.18;3.15;;;;;;;;;;4801673;29;20066;-82
2023/07/08 10:46:23;;;;;;;4.13;3.10;;;;;;;;;;4895768;29;20044;-81
2023/07/08 10:49:02;;;;;;;5.50;3.05;;;;;;;;;;4879028;29;20408;-81
2023/07/08 10:51:46;;;;;;;4.55;2.92;;;;;;;;;;4882059;29;20100;-81
2023/07/08 10:54:15;;;;;;;6.13;2.92;;;;;;;;;;4892502;29;21960;-81
2023/07/08 10:56:51;;;;;;;3.92;3.10;;;;;;;;;;4883808;29;20629;-81
2023/07/08 10:59:31;;;;;;;3.40;2.58;;;;;;;;;;4882142;29;20584;-83
2023/07/08 11:02:22;;;;;;;7.00;3.17;;;;;;;;;;4869969;29;20052;-83
2023/07/08 11:05:07;;;;;;;5.63;2.58;;;;;;;;;;4884714;29;20055;-84
2023/07/08 11:07:48;;;;;;;3.17;2.67;;;;;;;;;;4882929;29;20056;-82
2023/07/08 11:10:15;;;;;;;3.92;2.78;;;;;;;;;;4882949;29;20553;-85
2023/07/08 11:12:46;;;;;;;3.58;2.97;;;;;;;;;;4867012;29;20084;-83
2023/07/08 11:15:12;;;;;;;2.88;2.53;;;;;;;;;;4874633;29;20492;-84
2023/07/08 11:17:44;;;;;;;4.60;2.92;;;;;;;;;;4870795;29;20111;-84
2023/07/08 11:20:18;;;;;;;7.88;2.75;;;;;;;;;;4887083;29;20484;-86
2023/07/08 11:22:53;;;;;;;3.17;2.72;;;;;;;;;;4871405;29;20071;-84
2023/07/08 11:25:21;;;;;;;3.50;2.42;;;;;;;;;;4880333;29;20056;-83
2023/07/08 11:27:49;;;;;;;4.85;2.65;;;;;;;;;;4885714;29;21758;-83
2023/07/08 11:30:17;;;;;;;5.57;3.03;;;;;;;;;;4884086;29;20882;-84
2023/07/08 11:32:46;;;;;;;5.32;3.08;;;;;;;;;;4879389;29;20582;-85
2023/07/08 11:35:35;;;;;;;4.25;2.85;;;;;;;;;;4873911;29;20159;-84
2023/07/08 11:38:02;;;;;;;15.38;3.10;;;;;;;;;;4871715;29;20159;-85
2023/07/08 11:40:29;;;;;;;4.55;2.60;;;;;;;;;;4883905;29;20048;-83
2023/07/08 11:43:06;;;;;;;8.85;2.88;;;;;;;;;;4882443;29;20052;-83
2023/07/08 11:45:34;;;;;;;11.75;2.90;;;;;;;;;;4890644;29;20056;-83
2023/07/08 11:48:13;;;;;;;4.85;2.95;;;;;;;;;;4904251;29;20052;-84
2023/07/08 11:50:43;;;;;;;11.63;3.10;;;;;;;;;;4903974;29;20076;-83
2023/07/08 11:53:11;;;;;;;9.82;3.00;;;;;;;;;;4887305;29;20040;-85
2023/07/08 11:55:45;;;;;;;11.35;3.35;;;;;;;;;;4877634;29;20190;-84
2023/07/08 11:58:20;;;;;;;5.40;3.20;;;;;;;;;;4896150;29;20079;-85
2023/07/08 12:00:52;;;;;;;5.15;2.83;;;;;;;;;;4887131;29;20052;-86
2023/07/08 12:03:22;;;;;;;12.40;3.38;;;;;;;;;;4883459;29;20056;-85
2023/07/08 12:05:49;;;;;;;6.70;2.80;;;;;;;;;;4871301;29;20119;-85
2023/07/08 12:08:16;;;;;;;10.73;3.33;;;;;;;;;;4881126;29;20051;-85
2023/07/08 12:10:47;;;;;;;8.38;3.20;;;;;;;;;;4886696;29;20571;-85
2023/07/08 12:13:18;;;;;;;4.10;2.90;;;;;;;;;;4880921;29;20497;-87
2023/07/08 12:15:44;;;;;;;7.28;3.20;;;;;;;;;;4871873;29;20494;-86
2023/07/08 12:18:20;;;;;;;6.70;2.80;;;;;;;;;;4881111;29;20059;-85
2023/07/08 12:20:48;;;;;;;3.78;2.80;;;;;;;;;;4884261;29;20052;-85
2023/07/08 12:23:21;;;;;;;6.60;3.08;;;;;;;;;;4873674;29;20044;-85
2023/07/08 12:25:48;;;;;;;5.40;2.83;;;;;;;;;;4882769;29;20055;-85
2023/07/08 12:28:15;;;;;;;7.95;2.90;;;;;;;;;;4882320;29;20066;-86
2023/07/08 12:30:42;;;;;;;4.28;2.70;;;;;;;;;;4870343;29;20802;-85
2023/07/08 12:33:13;;;;;;;10.10;2.67;;;;;;;;;;4882259;29;20064;-86
2023/07/08 12:35:40;;;;;;;4.13;3.08;;;;;;;;;;4882276;29;20059;-87
2023/07/08 12:38:22;;;;;;;5.90;3.30;;;;;;;;;;4881567;29;20060;-87
2023/07/08 12:40:48;;;;;;;3.90;2.70;;;;;;;;;;4883995;29;20043;-86
2023/07/08 12:43:19;;;;;;;5.13;3.30;;;;;;;;;;4869959;29;20059;-87
2023/07/08 12:45:46;;;;;;;6.70;3.22;;;;;;;;;;4866435;29;20055;-84
2023/07/08 12:48:12;;;;;;;5.50;3.22;;;;;;;;;;4873276;29;20354;-84
2023/07/08 12:50:38;;;;;;;6.68;3.28;;;;;;;;;;4856210;29;20079;-86
2023/07/08 12:53:09;;;;;;;7.70;3.25;;;;;;;;;;4880817;29;20040;-86
2023/07/08 12:55:35;;;;;;;4.38;3.50;;;;;;;;;;4866337;29;20104;-86
2023/07/08 12:58:02;;;;;;;7.63;3.22;;;;;;;;;;4882041;29;20043;-85
2023/07/08 13:00:30;;;;;;;8.82;4.05;;;;;;;;;;4884516;29;21834;-85
2023/07/08 13:03:05;;;;;;;6.75;3.47;;;;;;;;;;4868242;29;20044;-85
2023/07/08 13:05:31;;;;;;;8.68;3.60;;;;;;;;;;4866708;29;20071;-85
2023/07/08 13:07:58;;;;;;;8.00;3.60;;;;;;;;;;4884514;29;20140;-86
2023/07/08 13:10:26;;;;;;;16.73;3.80;;;;;;;;;;4885694;29;20058;-86
2023/07/08 13:12:54;;;;;;;8.30;3.25;;;;;;;;;;4864449;29;20127;-86
2023/07/08 13:15:23;;;;;;;6.10;3.45;;;;;;;;;;4878913;29;20044;-84
2023/07/08 13:17:50;;;;;;;4.68;3.60;;;;;;;;;;4871069;29;20043;-85
2023/07/08 13:20:17;;;;;;;5.93;3.50;;;;;;;;;;4869087;29;20819;-85
2023/07/08 13:22:44;;;;;;;4.30;3.42;;;;;;;;;;4860437;29;20048;-87
2023/07/08 13:25:14;;;;;;;8.98;3.60;;;;;;;;;;4884035;29;20048;-87
2023/07/08 13:27:40;;;;;;;3.88;3.15;;;;;;;;;;4887985;29;20048;-86
2023/07/08 13:30:17;;;;;;;4.03;3.42;;;;;;;;;;4883936;29;20056;-86
2023/07/08 13:32:43;;;;;;;7.18;4.05;;;;;;;;;;4887852;29;20128;-84
2023/07/08 13:35:26;;;;;;;6.32;3.50;;;;;;;;;;4887741;29;20055;-84
2023/07/08 13:37:53;;;;;;;4.75;3.35;;;;;;;;;;4894048;29;20683;-84
2023/07/08 13:40:19;;;;;;;6.18;3.50;;;;;;;;;;4890745;29;20052;-85
2023/07/08 13:42:52;;;;;;;6.10;3.67;;;;;;;;;;4895721;29;20106;-89
2023/07/08 13:45:23;;;;;;;4.50;3.50;;;;;;;;;;4878610;29;20416;-85
2023/07/08 13:47:59;;;;;;;3.75;3.42;;;;;;;;;;4893181;29;20048;-78
2023/07/08 13:50:28;;;;;;;8.63;3.78;;;;;;;;;;4893057;29;20093;-83
2023/07/08 13:52:55;;;;;;;4.40;3.58;;;;;;;;;;4881556;29;20047;-84
2023/07/08 13:55:22;;;;;;;4.22;3.42;;;;;;;;;;4915449;29;20436;-86
2023/07/08 13:57:56;;;;;;;4.68;3.55;;;;;;;;;;4897995;29;20062;-84
2023/07/08 14:00:22;;;;;;;18.58;5.80;;;;;;;;;;4900174;29;20082;-85
2023/07/08 14:02:48;;;;;;;5.13;3.80;;;;;;;;;;4874319;29;20052;-83
2023/07/08 14:05:19;;;;;;;10.65;4.40;;;;;;;;;;4886545;29;20051;-84
2023/07/08 14:07:46;;;;;;;6.07;3.70;;;;;;;;;;4897393;29;20048;-86
2023/07/08 14:10:12;;;;;;;5.47;3.78;;;;;;;;;;4881835;29;20429;-85
2023/07/08 14:12:39;;;;;;;9.30;4.20;;;;;;;;;;4893915;29;20048;-82
2023/07/08 14:15:05;;;;;;;5.97;3.72;;;;;;;;;;4909248;29;20095;-86
2023/07/08 14:17:32;;;;;;;7.70;3.95;;;;;;;;;;4877068;29;20099;-88
2023/07/08 14:19:58;;;;;;;6.47;4.03;;;;;;;;;;4894771;29;20071;-87
2023/07/08 14:22:28;;;;;;;8.25;3.78;;;;;;;;;;4876406;29;20124;-87
2023/07/08 14:24:55;;;;;;;8.82;4.35;;;;;;;;;;4890012;29;21703;-87
2023/07/08 14:27:21;;;;;;;5.63;3.78;;;;;;;;;;4874858;29;21501;-86
2023/07/08 14:29:49;;;;;;;8.05;3.95;;;;;;;;;;4863223;29;20484;-87
2023/07/08 14:32:26;;;;;;;5.50;3.72;;;;;;;;;;4881485;29;20063;-85
2023/07/08 14:34:57;;;;;;;12.95;4.20;;;;;;;;;;4890955;29;20130;-86
2023/07/08 14:37:23;;;;;;;6.32;4.25;;;;;;;;;;4877100;29;20048;-85
2023/07/08 14:39:50;;;;;;;11.00;4.07;;;;;;;;;;4893756;29;21063;-86
2023/07/08 14:42:17;;;;;;;4.50;3.53;;;;;;;;;;4890906;29;20044;-88
2023/07/08 14:44:45;;;;;;;5.70;3.80;;;;;;;;;;4907268;29;20052;-85
2023/07/08 14:47:12;;;;;;;8.07;4.05;;;;;;;;;;4880697;29;20047;-83
2023/07/08 14:49:38;;;;;;;5.00;3.85;;;;;;;;;;4874755;29;20047;-87